createdAt,value
2022-08-23T00:00:42.027Z,151183.75
2022-08-23T00:01:46.970Z,151246.03
2022-08-23T00:02:49.398Z,151154.44
2022-08-23T00:03:53.449Z,151203.25
2022-08-23T00:05:07.438Z,151167.84
2022-08-23T00:06:10.896Z,151195.94
2022-08-23T00:07:15.880Z,151222.81
2022-08-23T00:08:18.089Z,151169.06
2022-08-23T00:09:22.995Z,151164.19
2022-08-23T00:10:25.213Z,151132.44
2022-08-23T00:11:47.658Z,151217.94
2022-08-23T00:12:50.390Z,151143.47
2022-08-23T00:13:52.752Z,151123.91
2022-08-23T00:14:55.510Z,151142.25
2022-08-23T00:15:58.485Z,151159.31
2022-08-23T00:17:02.137Z,151198.38
2022-08-23T00:18:04.586Z,151164.19
2022-08-23T00:19:08.178Z,151176.44
2022-08-23T00:20:14.113Z,151215.50
2022-08-23T00:21:17.002Z,151178.88
2022-08-23T00:22:19.183Z,151176.44
2022-08-23T00:23:21.399Z,151156.88
2022-08-23T00:24:25.570Z,151161.75
2022-08-23T00:25:27.794Z,151161.75
2022-08-23T00:27:16.681Z,151255.84
2022-08-23T00:28:18.942Z,151161.75
2022-08-23T00:29:22.747Z,151195.94
2022-08-23T00:30:26.822Z,151176.44
2022-08-23T00:31:28.986Z,151154.44
2022-08-23T00:32:35.190Z,151221.59
2022-08-23T00:33:37.367Z,151149.56
2022-08-23T00:34:40.889Z,151183.75
2022-08-23T00:35:43.275Z,151144.69
2022-08-23T00:36:46.453Z,151133.66
2022-08-23T00:37:51.588Z,151166.63
2022-08-23T00:39:12.425Z,151198.38
2022-08-23T00:40:17.823Z,151217.94
2022-08-23T00:41:20.062Z,151172.78
2022-08-23T00:43:01.098Z,151270.50
2022-08-23T00:44:23.706Z,151252.19
2022-08-23T00:46:09.954Z,151269.28
2022-08-23T00:47:32.819Z,151252.19
2022-08-23T00:48:35.947Z,151236.25
2022-08-23T00:49:39.158Z,151210.63
2022-08-23T00:50:51.709Z,151244.81
2022-08-23T00:52:07.578Z,151250.97
2022-08-23T00:53:15.684Z,151166.63
2022-08-23T00:54:19.810Z,151217.94
2022-08-23T00:55:22.170Z,151187.41
2022-08-23T00:56:27.818Z,151228.94
2022-08-23T00:57:33.094Z,151209.41
2022-08-23T00:58:36.127Z,151165.41
2022-08-23T00:59:38.706Z,151161.75
2022-08-23T01:00:41.210Z,151183.75
2022-08-23T01:01:44.163Z,151174.00
2022-08-23T01:02:49.338Z,151231.38
2022-08-23T01:04:04.197Z,151225.25
2022-08-23T01:05:07.873Z,151200.81
2022-08-23T01:06:12.205Z,151215.50
2022-08-23T01:07:35.159Z,151242.38
2022-08-23T01:08:39.528Z,151193.50
2022-08-23T01:09:44.809Z,151188.63
2022-08-23T01:10:53.430Z,151235.03
2022-08-23T01:12:05.388Z,151276.63
2022-08-23T01:13:18.108Z,151257.06
2022-08-23T01:15:00.848Z,151279.06
2022-08-23T01:16:07.585Z,151217.94
2022-08-23T01:17:31.911Z,151270.50
2022-08-23T01:18:34.677Z,151184.97
2022-08-23T01:19:41.042Z,151232.59
2022-08-23T01:20:54.470Z,151166.63
2022-08-23T01:22:09.270Z,151246.03
2022-08-23T01:23:37.683Z,151261.94
2022-08-23T01:25:06.553Z,151203.25
2022-08-23T01:26:05.405Z,151205.75
2022-08-23T01:27:08.906Z,151166.63
2022-08-23T01:28:11.730Z,151150.78
2022-08-23T01:29:14.100Z,151139.81
2022-08-23T01:30:24.141Z,151217.94
2022-08-23T01:31:27.332Z,151147.13
2022-08-23T01:32:29.865Z,151144.69
2022-08-23T01:33:32.153Z,151134.88
2022-08-23T01:34:35.201Z,151159.31
2022-08-23T01:35:47.625Z,151219.16
2022-08-23T01:36:49.690Z,151242.38
2022-08-23T01:37:51.887Z,151144.69
2022-08-23T01:38:54.630Z,151153.22
2022-08-23T01:39:57.546Z,151134.88
2022-08-23T01:41:00.083Z,151130.00
2022-08-23T01:42:02.719Z,151134.88
2022-08-23T01:43:13.590Z,151147.13
2022-08-23T01:44:16.602Z,151110.50
2022-08-23T01:45:19.103Z,151110.50
2022-08-23T01:46:23.073Z,151147.13
2022-08-23T01:47:25.434Z,151104.34
2022-08-23T01:48:28.473Z,151108.06
2022-08-23T01:49:32.574Z,151114.16
2022-08-23T01:51:43.470Z,151130.00
2022-08-23T01:52:46.635Z,151125.13
2022-08-23T01:53:50.632Z,151122.69
2022-08-23T01:54:53.273Z,151120.25
2022-08-23T01:55:55.930Z,151126.34
2022-08-23T01:56:58.947Z,151110.50
2022-08-23T01:58:03.601Z,151164.19
2022-08-23T02:00:34.016Z,151166.63
2022-08-23T02:01:36.960Z,151137.31
2022-08-23T02:02:39.163Z,151122.69
2022-08-23T02:03:41.579Z,151130.00
2022-08-23T02:04:43.764Z,151132.44
2022-08-23T02:05:46.103Z,151130.00
2022-08-23T02:06:48.500Z,151125.13
2022-08-23T02:08:17.709Z,151153.22
2022-08-23T02:09:20.224Z,151109.28
2022-08-23T02:10:23.012Z,151110.50
2022-08-23T02:11:26.852Z,151090.94
2022-08-23T02:12:29.945Z,151060.38
2022-08-23T02:13:44.067Z,151108.06
2022-08-23T02:14:47.827Z,151072.56
2022-08-23T02:15:58.405Z,151071.34
2022-08-23T02:17:04.298Z,151051.81
2022-08-23T02:18:07.917Z,151056.69
2022-08-23T02:19:12.973Z,151112.94
2022-08-23T02:20:15.270Z,151037.16
2022-08-23T02:21:17.789Z,151059.13
2022-08-23T02:22:20.343Z,151057.94
2022-08-23T02:23:22.893Z,151053.03
2022-08-23T02:24:26.104Z,151055.50
2022-08-23T02:25:28.501Z,151034.72
2022-08-23T02:26:31.429Z,151007.91
2022-08-23T02:27:34.116Z,151015.22
2022-08-23T02:28:36.542Z,150994.44
2022-08-23T02:29:39.799Z,151018.88
2022-08-23T02:30:45.799Z,151022.53
2022-08-23T02:31:49.839Z,151029.84
2022-08-23T02:32:52.406Z,151010.34
2022-08-23T02:33:56.081Z,151011.53
2022-08-23T02:35:05.251Z,151006.63
2022-08-23T02:36:09.659Z,150993.22
2022-08-23T02:37:13.783Z,151029.84
2022-08-23T02:38:18.201Z,150983.47
2022-08-23T02:39:20.840Z,150979.81
2022-08-23T02:40:23.096Z,150961.47
2022-08-23T02:41:25.662Z,150956.59
2022-08-23T02:42:29.309Z,150961.47
2022-08-23T02:43:31.754Z,150968.78
2022-08-23T02:44:35.564Z,150999.31
2022-08-23T02:45:38.953Z,150993.22
2022-08-23T02:46:42.856Z,151000.53
2022-08-23T02:47:46.353Z,150966.34
2022-08-23T02:48:54.226Z,150944.41
2022-08-23T02:49:56.858Z,150944.41
2022-08-23T02:51:01.134Z,150988.34
2022-08-23T02:52:06.421Z,150987.13
2022-08-23T02:53:08.683Z,150934.63
2022-08-23T02:54:11.258Z,150968.78
2022-08-23T02:55:14.378Z,150963.91
2022-08-23T02:56:21.412Z,150956.59
2022-08-23T02:57:24.552Z,150917.56
2022-08-23T02:58:29.178Z,150906.50
2022-08-23T02:59:31.997Z,150920.00
2022-08-23T03:00:34.625Z,150912.63
2022-08-23T03:01:39.506Z,150940.72
2022-08-23T03:02:54.887Z,150900.41
2022-08-23T03:03:58.393Z,150927.31
2022-08-23T03:05:01.352Z,150877.25
2022-08-23T03:06:03.992Z,150874.75
2022-08-23T03:07:26.307Z,150869.88
2022-08-23T03:08:28.842Z,150858.91
2022-08-23T03:09:31.038Z,150839.38
2022-08-23T03:10:33.251Z,150825.97
2022-08-23T03:11:36.431Z,150822.31
2022-08-23T03:12:38.991Z,150803.97
2022-08-23T03:13:42.478Z,150817.44
2022-08-23T03:14:44.758Z,150778.41
2022-08-23T03:15:48.562Z,150775.91
2022-08-23T03:16:51.437Z,150789.34
2022-08-23T03:17:53.918Z,150775.91
2022-08-23T03:18:56.373Z,150752.75
2022-08-23T03:19:58.561Z,150742.91
2022-08-23T03:21:00.804Z,150724.66
2022-08-23T03:22:03.065Z,150731.94
2022-08-23T03:23:05.374Z,150729.53
2022-08-23T03:24:10.404Z,150735.59
2022-08-23T03:25:14.182Z,150735.59
2022-08-23T03:26:35.807Z,150763.72
2022-08-23T03:27:44.628Z,150727.09
2022-08-23T03:28:47.738Z,150725.88
2022-08-23T03:29:50.395Z,150709.97
2022-08-23T03:30:53.382Z,150697.78
2022-08-23T03:31:55.954Z,150685.63
2022-08-23T03:33:01.898Z,150712.47
2022-08-23T03:34:06.203Z,150692.91
2022-08-23T03:35:10.951Z,150642.88
2022-08-23T03:36:17.514Z,150635.59
2022-08-23T03:37:20.477Z,150652.69
2022-08-23T03:38:22.711Z,150607.50
2022-08-23T03:39:25.101Z,150605.09
2022-08-23T03:40:28.388Z,150599.00
2022-08-23T03:41:30.614Z,150588.03
2022-08-23T03:42:32.868Z,150589.25
2022-08-23T03:43:35.999Z,150620.97
2022-08-23T03:44:38.451Z,150595.34
2022-08-23T03:45:40.636Z,150583.16
2022-08-23T03:46:44.276Z,150583.16
2022-08-23T03:47:46.531Z,150581.94
2022-08-23T03:48:54.438Z,150629.50
2022-08-23T03:49:58.138Z,150575.81
2022-08-23T03:51:37.218Z,150668.50
2022-08-23T03:52:40.700Z,150595.34
2022-08-23T03:53:43.921Z,150579.47
2022-08-23T03:54:47.870Z,150583.16
2022-08-23T03:55:53.282Z,150616.09
2022-08-23T03:57:05.606Z,150661.19
2022-08-23T03:58:09.754Z,150561.16
2022-08-23T03:59:11.942Z,150561.16
2022-08-23T04:00:15.287Z,150603.88
2022-08-23T04:01:28.426Z,150566.06
2022-08-23T04:02:31.041Z,150564.84
2022-08-23T04:03:33.277Z,150557.50
2022-08-23T04:04:38.850Z,150555.06
2022-08-23T04:06:07.238Z,150572.16
2022-08-23T04:07:09.564Z,150568.50
2022-08-23T04:08:13.844Z,150575.81
2022-08-23T04:09:17.879Z,150566.06
2022-08-23T04:10:21.928Z,150553.84
2022-08-23T04:11:27.691Z,150572.16
2022-08-23T04:12:35.406Z,150546.47
2022-08-23T04:13:39.972Z,150594.13
2022-08-23T04:14:42.258Z,150563.59
2022-08-23T04:15:44.516Z,150561.16
2022-08-23T04:16:46.777Z,150547.75
2022-08-23T04:17:49.401Z,150541.63
2022-08-23T04:18:51.786Z,150524.56
2022-08-23T04:19:56.206Z,150517.25
2022-08-23T04:21:00.649Z,150545.25
2022-08-23T04:22:03.325Z,150495.28
2022-08-23T04:23:12.621Z,150475.75
2022-08-23T04:24:24.345Z,150450.19
2022-08-23T04:25:34.433Z,150456.28
2022-08-23T04:26:38.211Z,150451.41
2022-08-23T04:27:41.722Z,150451.41
2022-08-23T04:28:45.068Z,150458.72
2022-08-23T04:29:48.450Z,150485.56
2022-08-23T04:30:51.758Z,150517.25
2022-08-23T04:31:54.264Z,150485.56
2022-08-23T04:32:57.305Z,150498.94
2022-08-23T04:33:59.810Z,150505.03
2022-08-23T04:35:04.145Z,150529.44
2022-08-23T04:36:06.740Z,150529.44
2022-08-23T04:37:10.200Z,150573.38
2022-08-23T04:38:18.251Z,150558.72
2022-08-23T04:39:28.845Z,150559.94
2022-08-23T04:40:50.770Z,150558.72
2022-08-23T04:42:14.924Z,150585.59
2022-08-23T04:43:17.826Z,150601.44
2022-08-23T04:44:20.522Z,150607.50
2022-08-23T04:45:27.087Z,150585.59
2022-08-23T04:46:29.357Z,150585.59
2022-08-23T04:47:34.789Z,150592.91
2022-08-23T04:48:37.833Z,150585.59
2022-08-23T04:49:40.477Z,150573.38
2022-08-23T04:50:42.787Z,150569.72
2022-08-23T04:51:54.320Z,150592.91
2022-08-23T04:52:57.650Z,150563.59
2022-08-23T04:53:59.951Z,150561.16
2022-08-23T04:55:31.367Z,150680.75
2022-08-23T04:56:42.783Z,150634.34
2022-08-23T04:57:46.348Z,150588.03
2022-08-23T04:58:53.296Z,150600.22
2022-08-23T04:59:55.599Z,150600.22
2022-08-23T05:00:59.801Z,150639.22
2022-08-23T05:02:03.278Z,150614.88
2022-08-23T05:03:06.198Z,150617.31
2022-08-23T05:04:08.800Z,150629.50
2022-08-23T05:05:14.486Z,150641.66
2022-08-23T05:06:19.706Z,150622.19
2022-08-23T05:07:31.940Z,150616.09
2022-08-23T05:08:44.448Z,150617.31
2022-08-23T05:09:46.637Z,150624.63
2022-08-23T05:10:48.952Z,150644.09
2022-08-23T05:11:51.179Z,150650.25
2022-08-23T05:12:53.901Z,150652.69
2022-08-23T05:13:57.221Z,150675.81
2022-08-23T05:14:59.565Z,150663.63
2022-08-23T05:16:02.560Z,150697.78
2022-08-23T05:17:09.209Z,150701.44
2022-08-23T05:18:13.090Z,150736.81
2022-08-23T05:19:16.615Z,150709.97
2022-08-23T05:20:20.653Z,150717.34
2022-08-23T05:21:24.317Z,150741.69
2022-08-23T05:22:27.794Z,150739.25
2022-08-23T05:23:55.805Z,150702.66
2022-08-23T05:25:00.740Z,150729.53
2022-08-23T05:26:03.164Z,150758.84
2022-08-23T05:27:13.638Z,150762.50
2022-08-23T05:28:19.305Z,150808.84
2022-08-23T05:29:21.628Z,150753.97
2022-08-23T05:30:26.143Z,150779.63
2022-08-23T05:31:30.421Z,150782.06
2022-08-23T05:32:34.858Z,150802.75
2022-08-23T05:33:38.594Z,150855.25
2022-08-23T05:34:40.954Z,150819.88
2022-08-23T05:35:45.920Z,150835.72
2022-08-23T05:36:55.379Z,150829.63
2022-08-23T05:38:01.984Z,150829.63
2022-08-23T05:39:05.912Z,150828.41
2022-08-23T05:40:11.043Z,150835.72
2022-08-23T05:41:22.258Z,150800.31
2022-08-23T05:42:36.007Z,150818.66
2022-08-23T05:43:38.306Z,150824.75
2022-08-23T05:44:40.620Z,150835.72
2022-08-23T05:45:44.857Z,150819.88
2022-08-23T05:46:47.344Z,150818.66
2022-08-23T05:48:12.710Z,150880.91
2022-08-23T05:49:21.358Z,150855.25
2022-08-23T05:50:24.566Z,150839.38
2022-08-23T05:51:30.387Z,150912.63
2022-08-23T05:52:32.621Z,150851.59
2022-08-23T05:53:34.812Z,150868.66
2022-08-23T05:54:39.244Z,150912.63
2022-08-23T05:56:31.506Z,150978.59
2022-08-23T05:57:38.338Z,150963.91
2022-08-23T05:58:42.006Z,150907.72
2022-08-23T05:59:44.267Z,150846.72
2022-08-23T06:00:46.622Z,150874.75
2022-08-23T06:01:50.219Z,150890.66
2022-08-23T06:02:55.050Z,150902.84
2022-08-23T06:04:00.429Z,150990.78
2022-08-23T06:05:02.645Z,150910.19
2022-08-23T06:06:05.190Z,150966.34
2022-08-23T06:07:09.746Z,150990.78
2022-08-23T06:08:11.967Z,150985.91
2022-08-23T06:09:16.399Z,151024.97
2022-08-23T06:10:20.785Z,151005.41
2022-08-23T06:11:30.158Z,151086.00
2022-08-23T06:12:32.442Z,151088.50
2022-08-23T06:13:44.097Z,151120.25
2022-08-23T06:14:46.523Z,151088.50
2022-08-23T06:15:51.078Z,151191.06
2022-08-23T06:16:56.414Z,151134.88
2022-08-23T06:18:02.228Z,151221.59
2022-08-23T06:19:06.415Z,151324.25
2022-08-23T06:20:34.863Z,151325.47
2022-08-23T06:21:40.214Z,151453.81
2022-08-23T06:22:42.405Z,151556.47
2022-08-23T06:23:47.674Z,151665.28
2022-08-23T06:24:50.435Z,151753.38
2022-08-23T06:25:52.655Z,151869.59
2022-08-23T06:26:56.665Z,151930.78
2022-08-23T06:27:58.889Z,152012.75
2022-08-23T06:29:07.237Z,152066.63
2022-08-23T06:30:13.191Z,152038.47
2022-08-23T06:31:51.870Z,152132.72
2022-08-23T06:33:02.023Z,152253.88
2022-08-23T06:34:09.014Z,152348.19
2022-08-23T06:35:40.081Z,152377.59
2022-08-23T06:36:57.925Z,152478.03
2022-08-23T06:38:18.586Z,152485.38
2022-08-23T06:39:29.080Z,152422.88
2022-08-23T06:40:40.573Z,152233.09
2022-08-23T06:42:36.543Z,152191.47
2022-08-23T06:43:39.970Z,152075.19
2022-08-23T06:45:17.613Z,152108.22
2022-08-23T06:46:28.235Z,152234.34
2022-08-23T06:47:31.809Z,152331.09
2022-08-23T06:48:34.518Z,152431.47
2022-08-23T06:49:36.989Z,152432.69
2022-08-23T06:50:41.243Z,152491.53
2022-08-23T06:52:13.520Z,152370.25
2022-08-23T06:53:41.727Z,152260.03
2022-08-23T06:55:10.565Z,152227.00
2022-08-23T06:56:29.269Z,152098.44
2022-08-23T06:57:41.963Z,151988.25
2022-08-23T06:59:06.505Z,151907.53
2022-08-23T07:00:28.019Z,151820.66
2022-08-23T07:01:52.267Z,151845.13
2022-08-23T07:02:58.318Z,151736.28
2022-08-23T07:04:39.775Z,151667.78
2022-08-23T07:05:44.218Z,151651.88
2022-08-23T07:07:11.565Z,151678.78
2022-08-23T07:08:14.761Z,151595.63
2022-08-23T07:09:18.857Z,151596.84
2022-08-23T07:10:21.493Z,151605.44
2022-08-23T07:11:23.978Z,151566.22
2022-08-23T07:12:26.221Z,151601.78
2022-08-23T07:13:28.474Z,151565.00
2022-08-23T07:14:31.279Z,151507.59
2022-08-23T07:15:33.483Z,151539.38
2022-08-23T07:16:43.296Z,151600.56
2022-08-23T07:17:45.861Z,151560.13
2022-08-23T07:18:49.902Z,151552.81
2022-08-23T07:19:52.506Z,151545.50
2022-08-23T07:20:59.803Z,151648.22
2022-08-23T07:22:04.793Z,151798.66
2022-08-23T07:23:07.530Z,151878.19
2022-08-23T07:24:10.165Z,151980.94
2022-08-23T07:25:12.408Z,152098.44
2022-08-23T07:26:17.237Z,152255.09
2022-08-23T07:27:19.421Z,152367.81
2022-08-23T07:28:38.532Z,152547.81
2022-08-23T07:29:41.205Z,152544.16
2022-08-23T07:30:45.383Z,152598.13
2022-08-23T07:31:56.177Z,152764.75
2022-08-23T07:33:00.400Z,152664.25
2022-08-23T07:34:06.855Z,152605.44
2022-08-23T07:35:18.361Z,152560.09
2022-08-23T07:36:24.110Z,152664.25
2022-08-23T07:37:28.305Z,152674.03
2022-08-23T07:38:30.959Z,152615.22
2022-08-23T07:39:35.946Z,152605.44
2022-08-23T07:40:39.465Z,152642.19
2022-08-23T07:41:44.972Z,152715.72
2022-08-23T07:42:47.922Z,152802.72
2022-08-23T07:43:50.634Z,152958.44
2022-08-23T07:44:53.609Z,152916.72
2022-08-23T07:45:57.708Z,152910.59
2022-08-23T07:47:00.002Z,152906.94
2022-08-23T07:48:04.345Z,152969.50
2022-08-23T07:49:14.345Z,153002.59
2022-08-23T07:50:20.101Z,153033.22
2022-08-23T07:51:23.101Z,152995.25
2022-08-23T07:52:25.333Z,153114.16
2022-08-23T07:53:37.466Z,153012.38
2022-08-23T07:54:41.589Z,152981.72
2022-08-23T07:56:12.597Z,153046.69
2022-08-23T07:57:28.315Z,153033.22
2022-08-23T07:58:44.068Z,153017.28
2022-08-23T08:00:12.799Z,153157.13
2022-08-23T08:01:22.139Z,153261.38
2022-08-23T08:02:25.556Z,153223.38
2022-08-23T08:03:28.739Z,153137.47
2022-08-23T08:04:44.078Z,153180.38
2022-08-23T08:05:47.515Z,153233.16
2022-08-23T08:07:10.410Z,153294.50
2022-08-23T08:08:15.049Z,153363.22
2022-08-23T08:09:19.258Z,153380.38
2022-08-23T08:10:22.520Z,153539.91
2022-08-23T08:11:32.369Z,153631.97
2022-08-23T08:12:37.519Z,153672.47
2022-08-23T08:13:50.883Z,153849.31
2022-08-23T08:14:55.099Z,153877.53
2022-08-23T08:16:03.720Z,153913.16
2022-08-23T08:17:07.959Z,153986.88
2022-08-23T08:18:28.333Z,154007.72
2022-08-23T08:19:50.356Z,153986.88
2022-08-23T08:21:13.882Z,154264.53
2022-08-23T08:22:34.603Z,154214.16
2022-08-23T08:23:57.583Z,154259.59
2022-08-23T08:25:35.346Z,154420.63
2022-08-23T08:26:42.477Z,154443.97
2022-08-23T08:27:45.943Z,154517.75
2022-08-23T08:28:48.141Z,154461.16
2022-08-23T08:29:50.926Z,154407.06
2022-08-23T08:30:54.133Z,154386.22
2022-08-23T08:31:57.220Z,154367.72
2022-08-23T08:32:59.638Z,154485.78
2022-08-23T08:34:02.465Z,154426.75
2022-08-23T08:35:05.684Z,154371.41
2022-08-23T08:36:09.320Z,154456.25
2022-08-23T08:37:11.744Z,154463.59
2022-08-23T08:38:13.969Z,154485.78
2022-08-23T08:39:21.238Z,154644.38
2022-08-23T08:40:33.809Z,154549.69
2022-08-23T08:42:07.206Z,154623.47
2022-08-23T08:43:29.400Z,154677.56
2022-08-23T08:44:46.106Z,154700.94
2022-08-23T08:45:59.219Z,154700.94
2022-08-23T08:47:27.799Z,154621.00
2022-08-23T08:48:39.960Z,154601.31
2022-08-23T08:49:49.750Z,154628.38
2022-08-23T08:50:57.210Z,154527.56
2022-08-23T08:52:11.306Z,154412.03
2022-08-23T08:53:17.528Z,154468.50
2022-08-23T08:54:46.165Z,154616.09
2022-08-23T08:55:55.491Z,154735.34
2022-08-23T08:57:01.718Z,154778.41
2022-08-23T08:58:13.013Z,154850.97
2022-08-23T08:59:21.610Z,154758.72
2022-08-23T09:00:32.318Z,154689.84
2022-08-23T09:01:37.981Z,154546.00
2022-08-23T09:02:40.946Z,154392.34
2022-08-23T09:03:46.327Z,154414.47
2022-08-23T09:04:51.062Z,154543.56
2022-08-23T09:06:22.597Z,154747.66
2022-08-23T09:07:54.096Z,154595.19
2022-08-23T09:09:17.579Z,154975.22
2022-08-23T09:10:38.288Z,154898.91
2022-08-23T09:11:45.652Z,154859.56
2022-08-23T09:12:54.491Z,154815.31
2022-08-23T09:14:08.390Z,154693.56
2022-08-23T09:15:25.641Z,154981.34
2022-08-23T09:16:55.908Z,155073.66
2022-08-23T09:18:09.260Z,154843.59
2022-08-23T09:19:13.030Z,154906.38
2022-08-23T09:20:20.772Z,154950.63
2022-08-23T09:21:28.314Z,155018.28
2022-08-23T09:22:49.223Z,155035.47
2022-08-23T09:24:01.394Z,154731.66
2022-08-23T09:25:24.897Z,154665.25
2022-08-23T09:26:44.385Z,154625.91
2022-08-23T09:27:49.299Z,154772.22
2022-08-23T09:29:04.618Z,154769.75
2022-08-23T09:30:15.480Z,154980.13
2022-08-23T09:31:49.829Z,155036.72
2022-08-23T09:33:15.855Z,155021.97
2022-08-23T09:34:38.261Z,155236.06
2022-08-23T09:36:22.192Z,155250.84
2022-08-23T09:37:32.087Z,155004.72
2022-08-23T09:38:37.956Z,155039.22
2022-08-23T09:39:50.802Z,155063.78
2022-08-23T09:40:57.042Z,155108.13
2022-08-23T09:41:59.975Z,155191.75
2022-08-23T09:43:05.216Z,155274.22
2022-08-23T09:44:13.610Z,155232.38
2022-08-23T09:45:38.498Z,155140.09
2022-08-23T09:46:42.907Z,155147.47
2022-08-23T09:47:48.656Z,155023.19
2022-08-23T09:48:55.246Z,155122.88
2022-08-23T09:50:30.932Z,155382.53
2022-08-23T09:51:37.683Z,154977.69
2022-08-23T09:52:42.793Z,155023.19
2022-08-23T09:53:53.377Z,155106.91
2022-08-23T09:55:06.290Z,155152.38
2022-08-23T09:56:17.619Z,155149.94
2022-08-23T09:57:27.852Z,155209.03
2022-08-23T09:58:38.331Z,154817.78
2022-08-23T09:59:45.845Z,154775.94
2022-08-23T10:01:23.920Z,155053.94
2022-08-23T10:02:36.671Z,155014.59
2022-08-23T10:04:08.639Z,155073.66
2022-08-23T10:05:31.323Z,155089.59
2022-08-23T10:06:37.467Z,155253.28
2022-08-23T10:07:46.440Z,155344.41
2022-08-23T10:08:53.375Z,155420.72
2022-08-23T10:10:15.080Z,155419.47
2022-08-23T10:11:19.164Z,155300.03
2022-08-23T10:12:23.393Z,155285.28
2022-08-23T10:13:27.014Z,155538.91
2022-08-23T10:14:32.928Z,155769.16
2022-08-23T10:15:52.273Z,155713.75
2022-08-23T10:17:19.237Z,155664.44
2022-08-23T10:18:51.141Z,155609.09
2022-08-23T10:20:36.974Z,155561.03
2022-08-23T10:21:54.339Z,155610.31
2022-08-23T10:23:11.534Z,155558.56
2022-08-23T10:24:31.184Z,155689.06
2022-08-23T10:25:42.569Z,155565.94
2022-08-23T10:26:53.190Z,155573.34
2022-08-23T10:28:22.313Z,155574.59
2022-08-23T10:29:43.403Z,155117.94
2022-08-23T10:30:59.723Z,155225.00
2022-08-23T10:32:16.495Z,154837.44
2022-08-23T10:33:45.475Z,155140.09
2022-08-23T10:35:12.206Z,155307.50
2022-08-23T10:36:31.686Z,155428.06
2022-08-23T10:37:33.891Z,155263.13
2022-08-23T10:38:46.895Z,155162.22
2022-08-23T10:40:03.698Z,155329.59
2022-08-23T10:41:07.379Z,155108.13
2022-08-23T10:42:36.218Z,155323.47
2022-08-23T10:43:41.469Z,155428.06
2022-08-23T10:44:55.558Z,155578.28
2022-08-23T10:46:01.816Z,155593.03
2022-08-23T10:47:22.637Z,155437.94
2022-08-23T10:48:55.402Z,155653.38
2022-08-23T10:50:13.002Z,155707.59
2022-08-23T10:51:31.913Z,155547.50
2022-08-23T10:52:48.143Z,155755.59
2022-08-23T10:54:00.577Z,155578.28
2022-08-23T10:55:17.309Z,155691.53
2022-08-23T10:56:22.162Z,155575.81
2022-08-23T10:57:36.435Z,155529.03
2022-08-23T10:58:58.627Z,155577.03
2022-08-23T11:00:05.333Z,155591.78
2022-08-23T11:01:09.511Z,155418.25
2022-08-23T11:02:29.637Z,155623.84
2022-08-23T11:04:21.737Z,155585.66
2022-08-23T11:05:43.466Z,155817.19
2022-08-23T11:06:55.972Z,155788.88
2022-08-23T11:08:03.305Z,155921.88
2022-08-23T11:09:19.455Z,155663.22
2022-08-23T11:10:53.834Z,155060.09
2022-08-23T11:12:02.680Z,155255.75
2022-08-23T11:13:20.777Z,155439.19
2022-08-23T11:14:32.433Z,155531.47
2022-08-23T11:16:06.916Z,155655.84
2022-08-23T11:17:25.019Z,155655.84
2022-08-23T11:18:34.015Z,155724.81
2022-08-23T11:19:53.662Z,155679.25
2022-08-23T11:21:02.908Z,155633.66
2022-08-23T11:22:18.096Z,155692.81
2022-08-23T11:23:59.639Z,155717.44
2022-08-23T11:25:26.934Z,155675.56
2022-08-23T11:26:36.340Z,155409.66
2022-08-23T11:27:42.390Z,155617.69
2022-08-23T11:28:52.059Z,155546.28
2022-08-23T11:30:23.026Z,155531.47
2022-08-23T11:31:57.263Z,155638.63
2022-08-23T11:33:16.366Z,155854.13
2022-08-23T11:34:29.315Z,155758.03
2022-08-23T11:35:40.528Z,155703.91
2022-08-23T11:37:19.989Z,155767.94
2022-08-23T11:38:43.697Z,155514.28
2022-08-23T11:39:58.273Z,155520.41
2022-08-23T11:41:18.998Z,155625.06
2022-08-23T11:42:21.746Z,155455.16
2022-08-23T11:43:29.179Z,155556.09
2022-08-23T11:44:46.796Z,155575.81
2022-08-23T11:45:49.357Z,155263.13
2022-08-23T11:46:55.805Z,155393.59
2022-08-23T11:48:20.373Z,155585.66
2022-08-23T11:49:31.128Z,155481.00
2022-08-23T11:50:43.992Z,155314.88
2022-08-23T11:52:10.974Z,155391.13
2022-08-23T11:53:19.986Z,155407.19
2022-08-23T11:54:34.095Z,155420.72
2022-08-23T11:55:59.001Z,155526.56
2022-08-23T11:57:18.246Z,155346.84
2022-08-23T11:58:29.647Z,155205.34
2022-08-23T11:59:54.893Z,155397.28
2022-08-23T12:01:07.456Z,155300.03
2022-08-23T12:02:40.595Z,155345.63
2022-08-23T12:03:59.997Z,155474.88
2022-08-23T12:05:18.080Z,155402.19
2022-08-23T12:06:21.474Z,155312.41
2022-08-23T12:07:47.273Z,155287.75
2022-08-23T12:08:51.508Z,155092.06
2022-08-23T12:09:56.191Z,155175.78
2022-08-23T12:11:02.049Z,155211.47
2022-08-23T12:12:25.127Z,155332.06
2022-08-23T12:13:49.744Z,155221.31
2022-08-23T12:15:01.259Z,155245.94
2022-08-23T12:16:19.835Z,155341.94
2022-08-23T12:17:26.073Z,155192.97
2022-08-23T12:18:28.334Z,155147.47
2022-08-23T12:19:40.373Z,155373.91
2022-08-23T12:20:48.291Z,155237.31
2022-08-23T12:21:52.448Z,155322.22
2022-08-23T12:23:03.470Z,155361.59
2022-08-23T12:24:17.153Z,155297.56
2022-08-23T12:25:21.352Z,155157.31
2022-08-23T12:26:30.975Z,155199.09
2022-08-23T12:27:46.057Z,155172.09
2022-08-23T12:28:55.451Z,155328.38
2022-08-23T12:30:03.234Z,155403.50
2022-08-23T12:31:42.906Z,155349.31
2022-08-23T12:32:51.050Z,155321.00
2022-08-23T12:34:14.865Z,155383.75
2022-08-23T12:35:30.382Z,155354.22
2022-08-23T12:36:58.814Z,155307.50
2022-08-23T12:38:29.370Z,155317.31
2022-08-23T12:39:34.583Z,155004.72
2022-08-23T12:40:43.322Z,155119.19
2022-08-23T12:42:16.102Z,155135.16
2022-08-23T12:43:22.629Z,155210.25
2022-08-23T12:44:28.488Z,155078.56
2022-08-23T12:45:38.997Z,155212.72
2022-08-23T12:46:45.381Z,155186.81
2022-08-23T12:48:06.686Z,155353.00
2022-08-23T12:49:22.163Z,155389.91
2022-08-23T12:50:36.249Z,155445.31
2022-08-23T12:51:48.517Z,155570.91
2022-08-23T12:53:05.393Z,155309.94
2022-08-23T12:54:18.365Z,155213.94
2022-08-23T12:55:20.560Z,155137.66
2022-08-23T12:56:31.641Z,155298.78
2022-08-23T12:57:40.113Z,155414.56
2022-08-23T12:58:48.270Z,155366.50
2022-08-23T13:00:18.541Z,155428.06
2022-08-23T13:01:31.351Z,155341.94
2022-08-23T13:02:35.211Z,155192.97
2022-08-23T13:03:44.443Z,155116.72
2022-08-23T13:04:46.903Z,154638.19
2022-08-23T13:05:56.775Z,154633.28
2022-08-23T13:07:10.029Z,154593.97
2022-08-23T13:08:33.597Z,154611.19
2022-08-23T13:09:40.509Z,154571.78
2022-08-23T13:10:44.447Z,154533.69
2022-08-23T13:11:47.594Z,154495.59
2022-08-23T13:12:50.557Z,154537.38
2022-08-23T13:13:56.177Z,154574.28
2022-08-23T13:15:01.663Z,154628.38
2022-08-23T13:16:27.224Z,154692.28
2022-08-23T13:17:36.792Z,154780.84
2022-08-23T13:18:39.019Z,154810.41